sensor_id;sensor_type;location;lat;lon;timestamp;temperature;humidity
37412;DHT22;23278;52.110;6.050;2023-08-01T00:00:02;16.60;99.90
37412;DHT22;23278;52.110;6.050;2023-08-01T00:02:38;16.60;99.90
37412;DHT22;23278;52.110;6.050;2023-08-01T00:05:05;16.60;99.90
37412;DHT22;23278;52.110;6.050;2023-08-01T00:07:31;16.60;99.90
37412;DHT22;23278;52.110;6.050;2023-08-01T00:09:57;16.60;99.90
37412;DHT22;23278;52.110;6.050;2023-08-01T00:12:24;16.60;99.90
37412;DHT22;23278;52.110;6.050;2023-08-01T00:14:50;16.60;99.90
37412;DHT22;23278;52.110;6.050;2023-08-01T00:17:16;16.60;99.90
37412;DHT22;23278;52.110;6.050;2023-08-01T00:19:41;16.60;99.90
37412;DHT22;23278;52.110;6.050;2023-08-01T00:22:08;16.50;99.90
37412;DHT22;23278;52.110;6.050;2023-08-01T00:24:35;16.50;99.90
37412;DHT22;23278;52.110;6.050;2023-08-01T00:27:02;16.50;99.90
37412;DHT22;23278;52.110;6.050;2023-08-01T00:29:27;16.40;99.90
37412;DHT22;23278;52.110;6.050;2023-08-01T00:31:53;16.40;99.90
37412;DHT22;23278;52.110;6.050;2023-08-01T00:34:19;16.40;99.90
37412;DHT22;23278;52.110;6.050;2023-08-01T00:36:45;16.40;99.90
37412;DHT22;23278;52.110;6.050;2023-08-01T00:39:11;16.40;99.90
37412;DHT22;23278;52.110;6.050;2023-08-01T00:41:37;16.30;99.90
37412;DHT22;23278;52.110;6.050;2023-08-01T00:44:03;16.30;99.90
37412;DHT22;23278;52.110;6.050;2023-08-01T00:46:29;16.30;99.90
37412;DHT22;23278;52.110;6.050;2023-08-01T00:48:55;16.30;99.90
37412;DHT22;23278;52.110;6.050;2023-08-01T00:51:24;16.30;99.90
37412;DHT22;23278;52.110;6.050;2023-08-01T00:53:51;16.30;99.90
37412;DHT22;23278;52.110;6.050;2023-08-01T00:56:17;16.30;99.90
37412;DHT22;23278;52.110;6.050;2023-08-01T00:58:44;16.30;99.90
37412;DHT22;23278;52.110;6.050;2023-08-01T01:01:10;16.20;99.90
37412;DHT22;23278;52.110;6.050;2023-08-01T01:03:37;16.20;99.90
37412;DHT22;23278;52.110;6.050;2023-08-01T01:08:34;16.10;99.90
37412;DHT22;23278;52.110;6.050;2023-08-01T01:11:01;16.00;99.90
37412;DHT22;23278;52.110;6.050;2023-08-01T01:13:26;16.00;99.90
37412;DHT22;23278;52.110;6.050;2023-08-01T01:15:52;16.00;99.90
37412;DHT22;23278;52.110;6.050;2023-08-01T01:18:18;16.00;99.90
37412;DHT22;23278;52.110;6.050;2023-08-01T01:20:45;16.00;99.90
37412;DHT22;23278;52.110;6.050;2023-08-01T01:23:11;16.00;99.90
37412;DHT22;23278;52.110;6.050;2023-08-01T01:25:39;15.90;99.90
37412;DHT22;23278;52.110;6.050;2023-08-01T01:28:06;15.90;99.90
37412;DHT22;23278;52.110;6.050;2023-08-01T01:30:33;15.90;99.90
37412;DHT22;23278;52.110;6.050;2023-08-01T01:33:03;15.90;99.90
37412;DHT22;23278;52.110;6.050;2023-08-01T01:35:30;15.90;99.90
37412;DHT22;23278;52.110;6.050;2023-08-01T01:37:55;16.00;99.90
37412;DHT22;23278;52.110;6.050;2023-08-01T01:40:24;15.90;99.90
37412;DHT22;23278;52.110;6.050;2023-08-01T01:42:50;15.90;99.90
37412;DHT22;23278;52.110;6.050;2023-08-01T01:45:16;15.80;99.90
37412;DHT22;23278;52.110;6.050;2023-08-01T01:47:41;15.70;99.90
37412;DHT22;23278;52.110;6.050;2023-08-01T01:50:08;15.70;99.90
37412;DHT22;23278;52.110;6.050;2023-08-01T01:52:34;15.60;99.90
37412;DHT22;23278;52.110;6.050;2023-08-01T01:55:00;15.50;99.90
37412;DHT22;23278;52.110;6.050;2023-08-01T01:57:26;15.40;99.90
37412;DHT22;23278;52.110;6.050;2023-08-01T01:59:52;15.30;99.90
37412;DHT22;23278;52.110;6.050;2023-08-01T02:02:18;15.30;99.90
37412;DHT22;23278;52.110;6.050;2023-08-01T02:04:46;15.20;99.90
37412;DHT22;23278;52.110;6.050;2023-08-01T02:07:12;15.10;99.90
37412;DHT22;23278;52.110;6.050;2023-08-01T02:09:40;15.10;99.90
37412;DHT22;23278;52.110;6.050;2023-08-01T02:12:07;15.10;99.90
37412;DHT22;23278;52.110;6.050;2023-08-01T02:14:36;15.00;99.90
37412;DHT22;23278;52.110;6.050;2023-08-01T02:17:02;15.00;99.90
37412;DHT22;23278;52.110;6.050;2023-08-01T02:19:29;14.90;99.90
37412;DHT22;23278;52.110;6.050;2023-08-01T02:21:55;14.90;99.90
37412;DHT22;23278;52.110;6.050;2023-08-01T02:24:21;14.90;99.90
37412;DHT22;23278;52.110;6.050;2023-08-01T02:26:48;14.90;99.90
37412;DHT22;23278;52.110;6.050;2023-08-01T02:29:14;14.90;99.90
37412;DHT22;23278;52.110;6.050;2023-08-01T02:31:40;14.80;99.90
37412;DHT22;23278;52.110;6.050;2023-08-01T02:34:06;14.80;99.90
37412;DHT22;23278;52.110;6.050;2023-08-01T02:36:35;14.80;99.90
37412;DHT22;23278;52.110;6.050;2023-08-01T02:39:01;14.80;99.90
37412;DHT22;23278;52.110;6.050;2023-08-01T02:41:27;14.80;99.90
37412;DHT22;23278;52.110;6.050;2023-08-01T02:43:52;14.80;99.90
37412;DHT22;23278;52.110;6.050;2023-08-01T02:46:18;14.80;99.90
37412;DHT22;23278;52.110;6.050;2023-08-01T02:48:44;14.80;99.90
37412;DHT22;23278;52.110;6.050;2023-08-01T02:51:10;14.90;99.90
37412;DHT22;23278;52.110;6.050;2023-08-01T02:53:36;14.90;99.90
37412;DHT22;23278;52.110;6.050;2023-08-01T02:56:02;14.80;99.90
37412;DHT22;23278;52.110;6.050;2023-08-01T02:58:30;14.80;99.90
37412;DHT22;23278;52.110;6.050;2023-08-01T03:00:56;14.80;99.90
37412;DHT22;23278;52.110;6.050;2023-08-01T03:03:22;14.80;99.90
37412;DHT22;23278;52.110;6.050;2023-08-01T03:05:48;14.80;99.90
37412;DHT22;23278;52.110;6.050;2023-08-01T03:08:13;14.80;99.90
37412;DHT22;23278;52.110;6.050;2023-08-01T03:10:39;14.80;99.90
37412;DHT22;23278;52.110;6.050;2023-08-01T03:13:06;14.80;99.90
37412;DHT22;23278;52.110;6.050;2023-08-01T03:15:32;14.80;99.90
37412;DHT22;23278;52.110;6.050;2023-08-01T03:17:58;14.90;99.90
37412;DHT22;23278;52.110;6.050;2023-08-01T03:20:23;14.80;99.90
37412;DHT22;23278;52.110;6.050;2023-08-01T03:22:49;14.90;99.90
37412;DHT22;23278;52.110;6.050;2023-08-01T03:25:16;14.90;99.90
37412;DHT22;23278;52.110;6.050;2023-08-01T03:27:42;14.90;99.90
37412;DHT22;23278;52.110;6.050;2023-08-01T03:30:08;14.90;99.90
37412;DHT22;23278;52.110;6.050;2023-08-01T03:32:38;14.90;99.90
37412;DHT22;23278;52.110;6.050;2023-08-01T03:35:05;14.90;99.90
37412;DHT22;23278;52.110;6.050;2023-08-01T03:37:31;15.00;99.90
37412;DHT22;23278;52.110;6.050;2023-08-01T03:39:57;15.10;99.90
37412;DHT22;23278;52.110;6.050;2023-08-01T03:42:23;15.20;99.90
37412;DHT22;23278;52.110;6.050;2023-08-01T03:44:49;15.30;99.90
37412;DHT22;23278;52.110;6.050;2023-08-01T03:47:15;15.40;99.90
37412;DHT22;23278;52.110;6.050;2023-08-01T03:49:41;15.40;99.90
37412;DHT22;23278;52.110;6.050;2023-08-01T03:52:07;15.50;99.90
37412;DHT22;23278;52.110;6.050;2023-08-01T03:54:33;15.50;99.90
37412;DHT22;23278;52.110;6.050;2023-08-01T03:56:59;15.50;99.90
37412;DHT22;23278;52.110;6.050;2023-08-01T03:59:26;15.50;99.90
37412;DHT22;23278;52.110;6.050;2023-08-01T04:01:52;15.50;99.90
37412;DHT22;23278;52.110;6.050;2023-08-01T04:04:18;15.50;99.90
37412;DHT22;23278;52.110;6.050;2023-08-01T04:06:45;15.40;99.90
37412;DHT22;23278;52.110;6.050;2023-08-01T04:09:11;15.40;99.90
37412;DHT22;23278;52.110;6.050;2023-08-01T04:11:37;15.40;99.90
37412;DHT22;23278;52.110;6.050;2023-08-01T04:14:03;15.30;99.90
37412;DHT22;23278;52.110;6.050;2023-08-01T04:16:29;15.30;99.90
37412;DHT22;23278;52.110;6.050;2023-08-01T04:18:55;15.30;99.90
37412;DHT22;23278;52.110;6.050;2023-08-01T04:21:21;15.20;99.90
37412;DHT22;23278;52.110;6.050;2023-08-01T04:23:47;15.30;99.90
37412;DHT22;23278;52.110;6.050;2023-08-01T04:26:13;15.20;99.90
37412;DHT22;23278;52.110;6.050;2023-08-01T04:28:39;15.10;99.90
37412;DHT22;23278;52.110;6.050;2023-08-01T04:31:05;15.10;99.90
37412;DHT22;23278;52.110;6.050;2023-08-01T04:33:30;15.10;99.90
37412;DHT22;23278;52.110;6.050;2023-08-01T04:35:56;15.10;99.90
37412;DHT22;23278;52.110;6.050;2023-08-01T04:38:22;15.10;99.90
37412;DHT22;23278;52.110;6.050;2023-08-01T04:40:49;15.00;99.90
37412;DHT22;23278;52.110;6.050;2023-08-01T04:43:18;15.00;99.90
37412;DHT22;23278;52.110;6.050;2023-08-01T04:45:44;15.10;99.90
37412;DHT22;23278;52.110;6.050;2023-08-01T04:48:10;15.10;99.90
37412;DHT22;23278;52.110;6.050;2023-08-01T04:50:36;15.10;99.90
37412;DHT22;23278;52.110;6.050;2023-08-01T04:53:02;15.00;99.90
37412;DHT22;23278;52.110;6.050;2023-08-01T04:55:28;15.00;99.90
37412;DHT22;23278;52.110;6.050;2023-08-01T04:57:54;15.00;99.90
37412;DHT22;23278;52.110;6.050;2023-08-01T05:00:20;14.90;99.90
37412;DHT22;23278;52.110;6.050;2023-08-01T05:02:46;14.90;99.90
37412;DHT22;23278;52.110;6.050;2023-08-01T05:05:11;14.80;99.90
37412;DHT22;23278;52.110;6.050;2023-08-01T05:07:37;14.80;99.90
37412;DHT22;23278;52.110;6.050;2023-08-01T05:10:03;14.80;99.90
37412;DHT22;23278;52.110;6.050;2023-08-01T05:12:29;14.80;99.90
37412;DHT22;23278;52.110;6.050;2023-08-01T05:14:56;14.70;99.90
37412;DHT22;23278;52.110;6.050;2023-08-01T05:17:22;14.80;99.90
37412;DHT22;23278;52.110;6.050;2023-08-01T05:19:47;14.70;99.90
37412;DHT22;23278;52.110;6.050;2023-08-01T05:22:13;14.70;99.90
37412;DHT22;23278;52.110;6.050;2023-08-01T05:24:39;14.80;99.90
37412;DHT22;23278;52.110;6.050;2023-08-01T05:27:06;14.80;99.90
37412;DHT22;23278;52.110;6.050;2023-08-01T05:29:32;14.80;99.90
37412;DHT22;23278;52.110;6.050;2023-08-01T05:31:58;14.80;99.90
37412;DHT22;23278;52.110;6.050;2023-08-01T05:34:24;14.90;99.90
37412;DHT22;23278;52.110;6.050;2023-08-01T05:36:50;15.00;99.90
37412;DHT22;23278;52.110;6.050;2023-08-01T05:39:16;15.10;99.90
37412;DHT22;23278;52.110;6.050;2023-08-01T05:41:43;15.20;99.90
37412;DHT22;23278;52.110;6.050;2023-08-01T05:44:09;15.30;99.90
37412;DHT22;23278;52.110;6.050;2023-08-01T05:46:35;15.30;99.90
37412;DHT22;23278;52.110;6.050;2023-08-01T05:49:01;15.40;99.90
37412;DHT22;23278;52.110;6.050;2023-08-01T05:51:26;15.50;99.90
37412;DHT22;23278;52.110;6.050;2023-08-01T05:53:52;15.60;99.90
37412;DHT22;23278;52.110;6.050;2023-08-01T05:56:18;15.60;99.90
37412;DHT22;23278;52.110;6.050;2023-08-01T05:58:44;15.80;99.90
37412;DHT22;23278;52.110;6.050;2023-08-01T06:01:11;16.10;99.90
37412;DHT22;23278;52.110;6.050;2023-08-01T06:03:38;16.30;99.90
37412;DHT22;23278;52.110;6.050;2023-08-01T06:06:04;16.40;99.90
37412;DHT22;23278;52.110;6.050;2023-08-01T06:08:30;16.40;99.90
37412;DHT22;23278;52.110;6.050;2023-08-01T06:10:56;16.40;99.90
37412;DHT22;23278;52.110;6.050;2023-08-01T06:13:22;16.30;99.90
37412;DHT22;23278;52.110;6.050;2023-08-01T06:15:48;16.30;99.90
37412;DHT22;23278;52.110;6.050;2023-08-01T06:18:14;16.30;99.90
37412;DHT22;23278;52.110;6.050;2023-08-01T06:20:40;16.30;99.90
37412;DHT22;23278;52.110;6.050;2023-08-01T06:23:06;16.30;99.90
37412;DHT22;23278;52.110;6.050;2023-08-01T06:25:32;16.20;99.90
37412;DHT22;23278;52.110;6.050;2023-08-01T06:27:57;16.20;99.90
37412;DHT22;23278;52.110;6.050;2023-08-01T06:30:24;16.20;99.90
37412;DHT22;23278;52.110;6.050;2023-08-01T06:32:49;16.10;99.90
37412;DHT22;23278;52.110;6.050;2023-08-01T06:35:15;16.10;99.90
37412;DHT22;23278;52.110;6.050;2023-08-01T06:37:41;16.20;99.90
37412;DHT22;23278;52.110;6.050;2023-08-01T06:40:08;16.30;99.90
37412;DHT22;23278;52.110;6.050;2023-08-01T06:42:34;16.40;99.90
37412;DHT22;23278;52.110;6.050;2023-08-01T06:44:59;16.40;99.90
37412;DHT22;23278;52.110;6.050;2023-08-01T06:47:25;16.30;99.90
37412;DHT22;23278;52.110;6.050;2023-08-01T06:49:51;16.30;99.90
37412;DHT22;23278;52.110;6.050;2023-08-01T06:52:17;16.40;99.90
37412;DHT22;23278;52.110;6.050;2023-08-01T06:54:43;16.30;99.90
37412;DHT22;23278;52.110;6.050;2023-08-01T06:57:09;16.30;99.90
37412;DHT22;23278;52.110;6.050;2023-08-01T06:59:35;16.40;99.90
37412;DHT22;23278;52.110;6.050;2023-08-01T07:02:01;16.40;99.90
37412;DHT22;23278;52.110;6.050;2023-08-01T07:04:27;16.40;99.90
37412;DHT22;23278;52.110;6.050;2023-08-01T07:06:53;16.50;99.90
37412;DHT22;23278;52.110;6.050;2023-08-01T07:09:19;16.70;99.90
37412;DHT22;23278;52.110;6.050;2023-08-01T07:11:44;16.90;99.90
37412;DHT22;23278;52.110;6.050;2023-08-01T07:14:10;17.00;99.90
37412;DHT22;23278;52.110;6.050;2023-08-01T07:16:36;17.00;99.90
37412;DHT22;23278;52.110;6.050;2023-08-01T07:19:02;17.00;99.90
37412;DHT22;23278;52.110;6.050;2023-08-01T07:21:28;17.10;99.90
37412;DHT22;23278;52.110;6.050;2023-08-01T07:23:54;17.20;99.90
37412;DHT22;23278;52.110;6.050;2023-08-01T07:26:20;17.30;99.90
37412;DHT22;23278;52.110;6.050;2023-08-01T07:28:46;17.20;99.90
37412;DHT22;23278;52.110;6.050;2023-08-01T07:31:12;17.20;99.90
37412;DHT22;23278;52.110;6.050;2023-08-01T07:33:38;17.20;99.90
37412;DHT22;23278;52.110;6.050;2023-08-01T07:36:05;17.10;99.90
37412;DHT22;23278;52.110;6.050;2023-08-01T07:38:31;17.10;99.90
37412;DHT22;23278;52.110;6.050;2023-08-01T07:41:04;17.10;99.90
37412;DHT22;23278;52.110;6.050;2023-08-01T07:43:30;17.10;99.90
37412;DHT22;23278;52.110;6.050;2023-08-01T07:45:57;17.20;99.90
37412;DHT22;23278;52.110;6.050;2023-08-01T07:48:23;17.30;99.90
37412;DHT22;23278;52.110;6.050;2023-08-01T07:50:49;17.30;99.90
37412;DHT22;23278;52.110;6.050;2023-08-01T07:53:15;17.40;99.90
37412;DHT22;23278;52.110;6.050;2023-08-01T07:55:41;17.50;99.90
37412;DHT22;23278;52.110;6.050;2023-08-01T07:58:07;17.60;99.90
37412;DHT22;23278;52.110;6.050;2023-08-01T08:00:35;17.60;99.90
37412;DHT22;23278;52.110;6.050;2023-08-01T08:03:01;17.60;99.90
37412;DHT22;23278;52.110;6.050;2023-08-01T08:05:27;17.80;99.90
37412;DHT22;23278;52.110;6.050;2023-08-01T08:07:53;17.90;99.90
37412;DHT22;23278;52.110;6.050;2023-08-01T08:10:19;18.00;99.90
37412;DHT22;23278;52.110;6.050;2023-08-01T08:12:45;18.30;99.90
37412;DHT22;23278;52.110;6.050;2023-08-01T08:15:11;18.50;99.90
37412;DHT22;23278;52.110;6.050;2023-08-01T08:17:39;18.50;99.90
37412;DHT22;23278;52.110;6.050;2023-08-01T08:20:05;18.10;99.90
37412;DHT22;23278;52.110;6.050;2023-08-01T08:22:32;17.60;99.90
37412;DHT22;23278;52.110;6.050;2023-08-01T08:24:58;17.20;99.90
37412;DHT22;23278;52.110;6.050;2023-08-01T08:27:24;17.00;99.90
37412;DHT22;23278;52.110;6.050;2023-08-01T08:29:50;16.90;99.90
37412;DHT22;23278;52.110;6.050;2023-08-01T08:32:16;16.90;99.90
37412;DHT22;23278;52.110;6.050;2023-08-01T08:34:42;17.10;99.90
37412;DHT22;23278;52.110;6.050;2023-08-01T08:37:09;17.40;99.90
37412;DHT22;23278;52.110;6.050;2023-08-01T08:39:34;17.50;99.90
37412;DHT22;23278;52.110;6.050;2023-08-01T08:42:01;17.60;99.90
37412;DHT22;23278;52.110;6.050;2023-08-01T08:44:27;17.60;99.90
37412;DHT22;23278;52.110;6.050;2023-08-01T08:47:02;17.60;99.90
37412;DHT22;23278;52.110;6.050;2023-08-01T08:49:29;17.50;99.90
37412;DHT22;23278;52.110;6.050;2023-08-01T08:51:57;17.30;99.90
37412;DHT22;23278;52.110;6.050;2023-08-01T08:54:24;17.20;99.90
37412;DHT22;23278;52.110;6.050;2023-08-01T08:56:51;17.00;99.90
37412;DHT22;23278;52.110;6.050;2023-08-01T08:59:18;16.90;99.90
37412;DHT22;23278;52.110;6.050;2023-08-01T09:01:45;17.10;99.90
37412;DHT22;23278;52.110;6.050;2023-08-01T09:04:12;17.30;99.90
37412;DHT22;23278;52.110;6.050;2023-08-01T09:06:48;17.80;99.90
37412;DHT22;23278;52.110;6.050;2023-08-01T09:09:15;18.40;99.90
37412;DHT22;23278;52.110;6.050;2023-08-01T09:11:49;18.60;99.90
37412;DHT22;23278;52.110;6.050;2023-08-01T09:14:16;18.40;99.90
37412;DHT22;23278;52.110;6.050;2023-08-01T09:16:43;18.30;99.90
37412;DHT22;23278;52.110;6.050;2023-08-01T09:19:10;18.40;99.90
37412;DHT22;23278;52.110;6.050;2023-08-01T09:21:39;18.40;99.90
37412;DHT22;23278;52.110;6.050;2023-08-01T09:26:39;18.30;99.90
37412;DHT22;23278;52.110;6.050;2023-08-01T09:29:06;18.30;99.90
37412;DHT22;23278;52.110;6.050;2023-08-01T09:31:40;18.40;99.90
37412;DHT22;23278;52.110;6.050;2023-08-01T09:34:27;18.80;99.90
37412;DHT22;23278;52.110;6.050;2023-08-01T09:37:00;19.30;99.90
37412;DHT22;23278;52.110;6.050;2023-08-01T09:39:26;20.00;99.90
37412;DHT22;23278;52.110;6.050;2023-08-01T09:41:56;20.30;99.90
37412;DHT22;23278;52.110;6.050;2023-08-01T09:44:23;20.70;99.90
37412;DHT22;23278;52.110;6.050;2023-08-01T09:47:01;21.00;99.90
37412;DHT22;23278;52.110;6.050;2023-08-01T09:49:28;21.30;99.90
37412;DHT22;23278;52.110;6.050;2023-08-01T09:51:55;21.50;99.90
37412;DHT22;23278;52.110;6.050;2023-08-01T09:54:21;21.60;99.90
37412;DHT22;23278;52.110;6.050;2023-08-01T09:56:49;21.80;99.90
37412;DHT22;23278;52.110;6.050;2023-08-01T09:59:22;21.80;99.90
37412;DHT22;23278;52.110;6.050;2023-08-01T10:01:51;21.80;99.90
37412;DHT22;23278;52.110;6.050;2023-08-01T10:04:30;21.70;99.90
37412;DHT22;23278;52.110;6.050;2023-08-01T10:07:11;21.10;99.90
37412;DHT22;23278;52.110;6.050;2023-08-01T10:09:37;20.40;99.90
37412;DHT22;23278;52.110;6.050;2023-08-01T10:12:05;19.80;99.90
37412;DHT22;23278;52.110;6.050;2023-08-01T10:14:35;19.60;99.90
37412;DHT22;23278;52.110;6.050;2023-08-01T10:17:02;19.60;99.90
37412;DHT22;23278;52.110;6.050;2023-08-01T10:19:31;20.20;99.90
37412;DHT22;23278;52.110;6.050;2023-08-01T10:21:58;20.80;99.90
37412;DHT22;23278;52.110;6.050;2023-08-01T10:24:25;21.50;99.90
37412;DHT22;23278;52.110;6.050;2023-08-01T10:26:51;22.40;99.90
37412;DHT22;23278;52.110;6.050;2023-08-01T10:29:17;22.50;99.90
37412;DHT22;23278;52.110;6.050;2023-08-01T10:31:53;22.10;99.90
37412;DHT22;23278;52.110;6.050;2023-08-01T10:34:20;21.80;99.90
37412;DHT22;23278;52.110;6.050;2023-08-01T10:36:57;21.20;99.90
37412;DHT22;23278;52.110;6.050;2023-08-01T10:39:25;20.90;99.90
37412;DHT22;23278;52.110;6.050;2023-08-01T10:44:25;21.60;99.90
37412;DHT22;23278;52.110;6.050;2023-08-01T10:49:18;21.60;99.90
37412;DHT22;23278;52.110;6.050;2023-08-01T10:51:45;21.50;99.90
37412;DHT22;23278;52.110;6.050;2023-08-01T10:54:24;21.30;99.90
37412;DHT22;23278;52.110;6.050;2023-08-01T10:56:55;21.20;99.90
37412;DHT22;23278;52.110;6.050;2023-08-01T10:59:23;21.10;99.90
37412;DHT22;23278;52.110;6.050;2023-08-01T11:01:57;21.60;99.90
37412;DHT22;23278;52.110;6.050;2023-08-01T11:04:24;23.40;99.90
37412;DHT22;23278;52.110;6.050;2023-08-01T11:06:52;25.40;99.90
37412;DHT22;23278;52.110;6.050;2023-08-01T11:09:20;27.00;99.90
37412;DHT22;23278;52.110;6.050;2023-08-01T11:11:54;27.60;99.20
37412;DHT22;23278;52.110;6.050;2023-08-01T11:14:30;27.80;98.70
37412;DHT22;23278;52.110;6.050;2023-08-01T11:16:57;27.20;99.10
37412;DHT22;23278;52.110;6.050;2023-08-01T11:19:29;26.10;99.90
37412;DHT22;23278;52.110;6.050;2023-08-01T11:21:56;25.00;99.90
37412;DHT22;23278;52.110;6.050;2023-08-01T11:24:24;24.00;99.90
37412;DHT22;23278;52.110;6.050;2023-08-01T11:26:51;23.30;99.90
37412;DHT22;23278;52.110;6.050;2023-08-01T11:29:19;22.80;99.90
37412;DHT22;23278;52.110;6.050;2023-08-01T11:31:58;22.70;99.90
37412;DHT22;23278;52.110;6.050;2023-08-01T11:34:26;22.90;99.90
37412;DHT22;23278;52.110;6.050;2023-08-01T11:36:53;23.10;99.90
37412;DHT22;23278;52.110;6.050;2023-08-01T11:39:19;22.90;99.90
37412;DHT22;23278;52.110;6.050;2023-08-01T11:41:47;23.20;99.90
37412;DHT22;23278;52.110;6.050;2023-08-01T11:44:13;25.30;99.90
37412;DHT22;23278;52.110;6.050;2023-08-01T11:46:40;27.40;95.70
37412;DHT22;23278;52.110;6.050;2023-08-01T11:49:07;29.10;93.30
37412;DHT22;23278;52.110;6.050;2023-08-01T11:51:43;30.10;83.40
37412;DHT22;23278;52.110;6.050;2023-08-01T11:54:12;30.60;83.60
37412;DHT22;23278;52.110;6.050;2023-08-01T11:56:39;31.90;78.80
37412;DHT22;23278;52.110;6.050;2023-08-01T11:59:14;32.50;76.00
37412;DHT22;23278;52.110;6.050;2023-08-01T12:01:45;32.30;74.00
37412;DHT22;23278;52.110;6.050;2023-08-01T12:04:27;32.60;72.60
37412;DHT22;23278;52.110;6.050;2023-08-01T12:06:56;31.50;69.90
37412;DHT22;23278;52.110;6.050;2023-08-01T12:09:25;30.90;70.50
37412;DHT22;23278;52.110;6.050;2023-08-01T12:11:58;30.00;70.30
37412;DHT22;23278;52.110;6.050;2023-08-01T12:14:25;28.60;71.40
37412;DHT22;23278;52.110;6.050;2023-08-01T12:16:53;27.60;76.20
37412;DHT22;23278;52.110;6.050;2023-08-01T12:19:20;27.20;78.00
37412;DHT22;23278;52.110;6.050;2023-08-01T12:21:47;27.00;76.60
37412;DHT22;23278;52.110;6.050;2023-08-01T12:24:13;27.00;79.30
37412;DHT22;23278;52.110;6.050;2023-08-01T12:26:43;28.50;75.40
37412;DHT22;23278;52.110;6.050;2023-08-01T12:29:09;30.60;70.20
37412;DHT22;23278;52.110;6.050;2023-08-01T12:31:36;32.30;67.40
37412;DHT22;23278;52.110;6.050;2023-08-01T12:34:01;33.60;64.00
37412;DHT22;23278;52.110;6.050;2023-08-01T12:36:28;34.50;63.70
37412;DHT22;23278;52.110;6.050;2023-08-01T12:38:54;35.10;59.70
37412;DHT22;23278;52.110;6.050;2023-08-01T12:41:20;33.40;56.90
37412;DHT22;23278;52.110;6.050;2023-08-01T12:43:46;31.10;63.20
37412;DHT22;23278;52.110;6.050;2023-08-01T12:46:12;30.30;66.00
37412;DHT22;23278;52.110;6.050;2023-08-01T12:48:38;30.00;65.30
37412;DHT22;23278;52.110;6.050;2023-08-01T12:51:04;30.70;62.90
37412;DHT22;23278;52.110;6.050;2023-08-01T12:53:31;31.40;61.40
37412;DHT22;23278;52.110;6.050;2023-08-01T12:56:03;30.70;58.10
37412;DHT22;23278;52.110;6.050;2023-08-01T12:58:29;29.10;59.40
37412;DHT22;23278;52.110;6.050;2023-08-01T13:00:56;27.70;61.90
37412;DHT22;23278;52.110;6.050;2023-08-01T13:03:22;26.70;64.80
37412;DHT22;23278;52.110;6.050;2023-08-01T13:05:48;26.00;65.20
37412;DHT22;23278;52.110;6.050;2023-08-01T13:08:13;25.30;67.70
37412;DHT22;23278;52.110;6.050;2023-08-01T13:10:39;24.70;70.90
37412;DHT22;23278;52.110;6.050;2023-08-01T13:13:06;24.30;72.00
37412;DHT22;23278;52.110;6.050;2023-08-01T13:15:32;24.00;74.00
37412;DHT22;23278;52.110;6.050;2023-08-01T13:17:58;23.80;72.20
37412;DHT22;23278;52.110;6.050;2023-08-01T13:20:24;23.90;72.00
37412;DHT22;23278;52.110;6.050;2023-08-01T13:22:51;24.00;70.30
37412;DHT22;23278;52.110;6.050;2023-08-01T13:25:18;24.40;69.90
37412;DHT22;23278;52.110;6.050;2023-08-01T13:27:44;24.70;67.90
37412;DHT22;23278;52.110;6.050;2023-08-01T13:30:10;25.40;68.40
37412;DHT22;23278;52.110;6.050;2023-08-01T13:32:40;27.10;64.10
37412;DHT22;23278;52.110;6.050;2023-08-01T13:35:07;28.10;62.00
37412;DHT22;23278;52.110;6.050;2023-08-01T13:37:33;30.50;57.30
37412;DHT22;23278;52.110;6.050;2023-08-01T13:39:59;32.60;52.20
37412;DHT22;23278;52.110;6.050;2023-08-01T13:42:26;34.00;49.80
37412;DHT22;23278;52.110;6.050;2023-08-01T13:44:54;35.20;47.20
37412;DHT22;23278;52.110;6.050;2023-08-01T13:47:20;36.20;44.70
37412;DHT22;23278;52.110;6.050;2023-08-01T13:49:46;36.00;42.80
37412;DHT22;23278;52.110;6.050;2023-08-01T13:52:12;35.00;43.40
37412;DHT22;23278;52.110;6.050;2023-08-01T13:54:38;33.70;45.40
37412;DHT22;23278;52.110;6.050;2023-08-01T13:57:05;31.60;48.00
37412;DHT22;23278;52.110;6.050;2023-08-01T13:59:31;29.70;50.00
37412;DHT22;23278;52.110;6.050;2023-08-01T14:01:57;28.20;53.10
37412;DHT22;23278;52.110;6.050;2023-08-01T14:04:23;26.90;55.30
37412;DHT22;23278;52.110;6.050;2023-08-01T14:06:49;25.90;57.60
37412;DHT22;23278;52.110;6.050;2023-08-01T14:09:22;25.10;60.40
37412;DHT22;23278;52.110;6.050;2023-08-01T14:11:48;24.50;61.50
37412;DHT22;23278;52.110;6.050;2023-08-01T14:14:14;24.10;62.70
37412;DHT22;23278;52.110;6.050;2023-08-01T14:16:40;23.90;63.30
37412;DHT22;23278;52.110;6.050;2023-08-01T14:19:05;23.90;63.60
37412;DHT22;23278;52.110;6.050;2023-08-01T14:21:34;24.10;63.90
37412;DHT22;23278;52.110;6.050;2023-08-01T14:24:00;24.30;63.30
37412;DHT22;23278;52.110;6.050;2023-08-01T14:26:27;24.70;62.30
37412;DHT22;23278;52.110;6.050;2023-08-01T14:28:52;24.70;62.20
37412;DHT22;23278;52.110;6.050;2023-08-01T14:31:18;24.60;62.00
37412;DHT22;23278;52.110;6.050;2023-08-01T14:33:44;24.70;62.70
37412;DHT22;23278;52.110;6.050;2023-08-01T14:36:10;25.80;61.00
37412;DHT22;23278;52.110;6.050;2023-08-01T14:38:39;28.50;55.80
37412;DHT22;23278;52.110;6.050;2023-08-01T14:41:05;31.10;51.30
37412;DHT22;23278;52.110;6.050;2023-08-01T14:43:31;32.90;48.10
37412;DHT22;23278;52.110;6.050;2023-08-01T14:45:57;34.50;46.60
37412;DHT22;23278;52.110;6.050;2023-08-01T14:48:23;35.50;44.90
37412;DHT22;23278;52.110;6.050;2023-08-01T14:50:49;36.40;44.10
37412;DHT22;23278;52.110;6.050;2023-08-01T14:53:15;37.10;41.70
37412;DHT22;23278;52.110;6.050;2023-08-01T14:55:41;36.60;42.00
37412;DHT22;23278;52.110;6.050;2023-08-01T14:58:07;35.80;43.80
37412;DHT22;23278;52.110;6.050;2023-08-01T15:00:36;34.50;43.90
37412;DHT22;23278;52.110;6.050;2023-08-01T15:03:02;32.50;44.70
37412;DHT22;23278;52.110;6.050;2023-08-01T15:05:29;30.30;48.10
37412;DHT22;23278;52.110;6.050;2023-08-01T15:07:56;28.60;51.00
37412;DHT22;23278;52.110;6.050;2023-08-01T15:10:22;27.50;52.80
37412;DHT22;23278;52.110;6.050;2023-08-01T15:12:48;26.60;54.50
37412;DHT22;23278;52.110;6.050;2023-08-01T15:15:15;25.90;55.80
37412;DHT22;23278;52.110;6.050;2023-08-01T15:17:41;25.30;56.20
37412;DHT22;23278;52.110;6.050;2023-08-01T15:20:07;25.00;56.80
37412;DHT22;23278;52.110;6.050;2023-08-01T15:22:33;24.90;57.40
37412;DHT22;23278;52.110;6.050;2023-08-01T15:25:00;24.50;57.60
37412;DHT22;23278;52.110;6.050;2023-08-01T15:27:26;24.20;58.50
37412;DHT22;23278;52.110;6.050;2023-08-01T15:29:51;23.80;59.10
37412;DHT22;23278;52.110;6.050;2023-08-01T15:32:17;23.50;60.10
37412;DHT22;23278;52.110;6.050;2023-08-01T15:34:44;23.60;60.50
37412;DHT22;23278;52.110;6.050;2023-08-01T15:37:10;24.40;58.60